createdAt,value
2022-08-17T00:02:26.847Z,20.32
2022-08-17T00:05:31.453Z,20.25
2022-08-17T00:08:36.801Z,20.27
2022-08-17T00:11:41.566Z,20.19
2022-08-17T00:14:43.701Z,20.13
2022-08-17T00:17:48.563Z,20.18
2022-08-17T00:20:50.382Z,20.19
2022-08-17T00:23:53.205Z,20.24
2022-08-17T00:26:55.151Z,20.35
2022-08-17T00:29:56.945Z,20.76
2022-08-17T00:33:12.668Z,20.64
2022-08-17T00:36:18.797Z,20.48
2022-08-17T00:39:20.414Z,20.30
2022-08-17T00:42:22.040Z,20.39
2022-08-17T00:45:23.710Z,20.66
2022-08-17T00:48:29.278Z,20.75
2022-08-17T00:51:50.271Z,20.83
2022-08-17T00:54:55.014Z,20.83
2022-08-17T00:58:01.881Z,20.90
2022-08-17T01:01:06.653Z,20.96
2022-08-17T01:04:09.787Z,20.92
2022-08-17T01:07:12.976Z,20.75
2022-08-17T01:11:00.476Z,20.75
2022-08-17T01:13:43.370Z,20.64
2022-08-17T01:16:45.290Z,20.57
2022-08-17T01:19:47.163Z,20.54
2022-08-17T01:22:49.041Z,20.65
2022-08-17T01:25:57.421Z,20.43
2022-08-17T01:29:01.059Z,20.61
2022-08-17T01:32:05.606Z,20.79
2022-08-17T01:35:08.117Z,20.74
2022-08-17T01:38:09.796Z,20.72
2022-08-17T01:41:15.655Z,20.69
2022-08-17T01:44:17.672Z,20.58
2022-08-17T01:47:19.291Z,20.61
2022-08-17T01:50:25.645Z,20.49
2022-08-17T01:53:39.655Z,20.38
2022-08-17T01:56:47.614Z,20.34
2022-08-17T01:59:49.574Z,20.35
2022-08-17T02:02:51.835Z,20.33
2022-08-17T02:05:53.911Z,20.45
2022-08-17T02:09:01.451Z,20.39
2022-08-17T02:12:39.417Z,20.19
2022-08-17T02:15:27.509Z,20.21
2022-08-17T02:18:30.214Z,20.20
2022-08-17T02:21:32.663Z,20.16
2022-08-17T02:25:00.420Z,20.20
2022-08-17T02:27:59.476Z,20.31
2022-08-17T02:31:10.482Z,20.54
2022-08-17T02:34:12.701Z,20.75
2022-08-17T02:37:17.671Z,20.94
2022-08-17T02:40:35.935Z,20.95
2022-08-17T02:43:38.496Z,20.95
2022-08-17T02:46:40.338Z,21.11
2022-08-17T02:49:46.258Z,21.22
2022-08-17T02:53:01.889Z,21.40
2022-08-17T02:56:04.828Z,21.61
2022-08-17T02:59:06.662Z,21.69
2022-08-17T03:02:11.564Z,21.53
2022-08-17T03:05:16.459Z,21.58
2022-08-17T03:08:18.507Z,21.55
2022-08-17T03:11:20.235Z,21.41
2022-08-17T03:14:21.920Z,21.25
2022-08-17T03:17:27.959Z,21.15
2022-08-17T03:20:31.979Z,21.26
2022-08-17T03:23:34.005Z,21.08
2022-08-17T03:26:36.393Z,21.02
2022-08-17T03:29:38.142Z,21.02
2022-08-17T03:32:42.526Z,21.12
2022-08-17T03:35:44.534Z,20.97
2022-08-17T03:38:46.237Z,20.68
2022-08-17T03:41:48.103Z,20.64
2022-08-17T03:44:51.109Z,20.67
2022-08-17T03:48:11.834Z,20.67
2022-08-17T03:51:39.396Z,20.69
2022-08-17T03:55:01.450Z,20.75
2022-08-17T03:58:03.528Z,20.68
2022-08-17T04:01:07.028Z,20.58
2022-08-17T04:04:08.937Z,20.49
2022-08-17T04:07:10.770Z,20.50
2022-08-17T04:10:14.117Z,20.65
2022-08-17T04:13:16.412Z,20.96
2022-08-17T04:16:27.368Z,21.15
2022-08-17T04:19:29.212Z,21.28
2022-08-17T04:22:34.234Z,21.35
2022-08-17T04:25:38.758Z,21.23
2022-08-17T04:28:42.312Z,21.23
2022-08-17T04:31:44.460Z,21.21
2022-08-17T04:34:46.249Z,21.17
2022-08-17T04:37:48.137Z,21.31
2022-08-17T04:41:08.939Z,21.49
2022-08-17T04:44:11.603Z,21.43
2022-08-17T04:47:14.148Z,21.28
2022-08-17T04:50:15.893Z,21.05
2022-08-17T04:53:18.706Z,21.05
2022-08-17T04:56:20.591Z,20.81
2022-08-17T04:59:22.734Z,20.75
2022-08-17T05:02:24.461Z,20.76
2022-08-17T05:05:31.433Z,20.28
2022-08-17T05:08:33.470Z,19.83
2022-08-17T05:11:35.446Z,19.51
2022-08-17T05:14:39.387Z,19.53
2022-08-17T05:17:41.123Z,19.26
2022-08-17T05:20:43.420Z,19.19
2022-08-17T05:23:47.190Z,19.23
2022-08-17T05:26:56.464Z,19.13
2022-08-17T05:29:58.166Z,19.35
2022-08-17T05:33:09.861Z,19.34
2022-08-17T05:36:42.300Z,19.30
2022-08-17T05:39:35.894Z,19.48
2022-08-17T05:42:37.560Z,19.61
2022-08-17T05:46:07.771Z,19.64
2022-08-17T05:49:11.014Z,19.89
2022-08-17T05:52:20.543Z,19.78
2022-08-17T05:55:41.069Z,19.96
2022-08-17T05:58:53.068Z,19.85
2022-08-17T06:02:13.473Z,19.89
2022-08-17T06:05:25.566Z,19.68
2022-08-17T06:08:39.839Z,19.58
2022-08-17T06:11:53.895Z,19.47
2022-08-17T06:15:30.252Z,19.51
2022-08-17T06:18:41.415Z,19.48
2022-08-17T06:21:46.575Z,19.56
2022-08-17T06:24:54.386Z,19.65
2022-08-17T06:28:08.770Z,19.88
2022-08-17T06:31:22.374Z,20.30
2022-08-17T06:34:24.218Z,20.13
2022-08-17T06:37:41.260Z,20.01
2022-08-17T06:41:03.709Z,19.97
2022-08-17T06:44:43.144Z,19.92
2022-08-17T06:47:59.315Z,19.96
2022-08-17T06:51:07.905Z,19.92
2022-08-17T06:54:27.261Z,19.69
2022-08-17T06:57:32.132Z,19.33
2022-08-17T07:00:40.784Z,19.06
2022-08-17T07:03:55.037Z,18.96
2022-08-17T07:07:27.298Z,18.89
2022-08-17T07:10:38.097Z,19.67
2022-08-17T07:14:07.386Z,18.98
2022-08-17T07:17:18.497Z,19.23
2022-08-17T07:20:22.487Z,19.10
2022-08-17T07:23:48.643Z,18.81
2022-08-17T07:27:04.960Z,18.92
2022-08-17T07:30:10.902Z,19.07
2022-08-17T07:33:20.266Z,19.32
2022-08-17T07:36:30.040Z,19.61
2022-08-17T07:39:31.957Z,20.09
2022-08-17T07:42:34.397Z,19.47
2022-08-17T07:46:08.811Z,19.22
2022-08-17T07:49:10.444Z,19.89
2022-08-17T07:52:50.357Z,19.15
2022-08-17T07:55:53.347Z,18.78
2022-08-17T07:59:33.883Z,18.81
2022-08-17T08:02:38.729Z,18.98
2022-08-17T08:05:53.830Z,19.05
2022-08-17T08:08:56.480Z,19.09
2022-08-17T08:11:58.856Z,19.53
2022-08-17T08:15:09.402Z,19.36
2022-08-17T08:18:53.787Z,19.35
2022-08-17T08:21:55.153Z,19.46
2022-08-17T08:25:16.220Z,19.55
2022-08-17T08:28:43.502Z,19.56
2022-08-17T08:32:07.741Z,19.52
2022-08-17T08:35:26.831Z,19.61
2022-08-17T08:38:36.418Z,19.67
2022-08-17T08:42:09.314Z,19.52
2022-08-17T08:45:19.682Z,19.35
2022-08-17T08:48:53.238Z,19.24
2022-08-17T08:52:01.237Z,19.11
2022-08-17T08:55:13.738Z,18.99
2022-08-17T08:58:41.612Z,18.93
2022-08-17T09:01:53.779Z,18.99
2022-08-17T09:05:21.647Z,19.05
2022-08-17T09:08:44.470Z,19.11
2022-08-17T09:12:13.814Z,19.08
2022-08-17T09:15:20.857Z,19.23
2022-08-17T09:19:00.582Z,19.38
2022-08-17T09:22:03.551Z,19.44
2022-08-17T09:25:12.465Z,19.55
2022-08-17T09:28:29.386Z,19.41
2022-08-17T09:31:49.194Z,19.47
2022-08-17T09:34:54.949Z,19.40
2022-08-17T09:38:25.590Z,19.45
2022-08-17T09:41:49.287Z,19.61
2022-08-17T09:45:20.390Z,19.65
2022-08-17T09:48:28.634Z,19.57
2022-08-17T09:51:42.032Z,19.73
2022-08-17T09:54:46.174Z,19.94
2022-08-17T09:58:06.234Z,20.19
2022-08-17T10:01:17.259Z,20.18
2022-08-17T10:04:37.820Z,20.25
2022-08-17T10:07:58.389Z,20.25
2022-08-17T10:11:50.452Z,20.03
2022-08-17T10:15:17.565Z,20.27
2022-08-17T10:18:31.859Z,20.41
2022-08-17T10:22:01.074Z,20.55
2022-08-17T10:25:37.599Z,20.75
2022-08-17T10:28:55.607Z,20.73
2022-08-17T10:32:04.610Z,20.75
2022-08-17T10:35:40.639Z,20.94
2022-08-17T10:39:02.105Z,21.18
2022-08-17T10:42:30.768Z,21.45
2022-08-17T10:45:48.497Z,21.79
2022-08-17T10:49:19.269Z,21.98
2022-08-17T10:52:20.826Z,21.91
2022-08-17T10:55:25.770Z,21.67
2022-08-17T10:58:58.143Z,21.59
2022-08-17T11:02:14.025Z,21.43
2022-08-17T11:05:54.107Z,21.56
2022-08-17T11:09:23.836Z,21.75
2022-08-17T11:12:36.838Z,22.03
2022-08-17T11:16:17.779Z,22.50
2022-08-17T11:19:22.453Z,22.91
2022-08-17T11:22:36.031Z,23.04
2022-08-17T11:25:43.771Z,23.19
2022-08-17T11:28:50.396Z,23.81
2022-08-17T11:32:02.319Z,24.71
2022-08-17T11:35:22.817Z,25.01
2022-08-17T11:38:36.933Z,25.12
2022-08-17T11:41:48.915Z,25.66
2022-08-17T11:44:55.920Z,25.50
2022-08-17T11:48:34.787Z,25.72
2022-08-17T11:52:04.246Z,25.59
2022-08-17T11:55:33.838Z,25.72
2022-08-17T11:58:40.056Z,26.07
2022-08-17T12:01:53.279Z,26.40
2022-08-17T12:05:17.066Z,26.58
2022-08-17T12:08:21.574Z,26.67
2022-08-17T12:11:58.699Z,26.68
2022-08-17T12:15:10.164Z,26.92
2022-08-17T12:18:23.409Z,26.96
2022-08-17T12:21:49.758Z,27.19
2022-08-17T12:25:11.062Z,27.21
2022-08-17T12:28:32.060Z,27.11
2022-08-17T12:31:44.508Z,27.37
2022-08-17T12:34:49.239Z,27.57
2022-08-17T12:37:51.443Z,27.63
2022-08-17T12:40:58.516Z,27.64
2022-08-17T12:44:14.537Z,27.87
2022-08-17T12:47:22.236Z,28.58
2022-08-17T12:50:29.221Z,28.06
2022-08-17T12:53:35.260Z,28.21
2022-08-17T12:56:36.914Z,28.36
2022-08-17T12:59:45.336Z,28.73
2022-08-17T13:03:07.822Z,28.76
2022-08-17T13:06:12.179Z,29.44
2022-08-17T13:09:18.719Z,28.99
2022-08-17T13:12:27.229Z,29.50
2022-08-17T13:15:38.167Z,29.22
2022-08-17T13:19:12.824Z,29.07
2022-08-17T13:22:14.803Z,29.04
2022-08-17T13:25:16.858Z,29.14
2022-08-17T13:28:29.765Z,28.35
2022-08-17T13:31:52.379Z,28.43
2022-08-17T13:35:14.085Z,28.53
2022-08-17T13:38:47.360Z,28.74
2022-08-17T13:41:51.975Z,28.16
2022-08-17T13:44:53.791Z,28.10
2022-08-17T13:48:17.079Z,28.31
2022-08-17T13:51:26.756Z,28.24
2022-08-17T13:54:34.366Z,28.30
2022-08-17T13:57:36.617Z,28.18
2022-08-17T14:00:39.508Z,28.07
2022-08-17T14:03:41.172Z,27.85
2022-08-17T14:06:56.432Z,28.01
2022-08-17T14:10:02.133Z,28.37
2022-08-17T14:13:05.280Z,28.78
2022-08-17T14:16:07.088Z,28.58
2022-08-17T14:19:13.233Z,28.91
2022-08-17T14:22:23.785Z,29.13
2022-08-17T14:25:30.237Z,29.21
2022-08-17T14:28:32.194Z,29.06
2022-08-17T14:31:37.612Z,28.85
2022-08-17T14:34:39.654Z,28.46
2022-08-17T14:37:42.302Z,28.65
2022-08-17T14:40:44.360Z,28.22
2022-08-17T14:43:46.896Z,28.23
2022-08-17T14:46:50.508Z,28.24
2022-08-17T14:49:52.601Z,28.59
2022-08-17T14:52:59.179Z,28.57
2022-08-17T14:56:04.419Z,28.70
2022-08-17T14:59:06.206Z,28.66
2022-08-17T15:02:08.325Z,28.73
2022-08-17T15:05:14.349Z,28.78
2022-08-17T15:08:19.604Z,28.78
2022-08-17T15:11:34.505Z,29.04
2022-08-17T15:14:36.845Z,29.25
2022-08-17T15:17:44.678Z,29.44
2022-08-17T15:20:50.029Z,29.30
2022-08-17T15:23:51.831Z,29.20
2022-08-17T15:26:53.481Z,29.13
2022-08-17T15:29:55.573Z,29.23
2022-08-17T15:33:19.518Z,29.23
2022-08-17T15:41:09.736Z,29.11
2022-08-17T15:44:11.557Z,29.29
2022-08-17T15:47:15.604Z,29.37
2022-08-17T15:50:17.347Z,29.09
2022-08-17T15:53:18.992Z,28.96
2022-08-17T15:56:21.116Z,28.82
2022-08-17T15:59:22.751Z,28.55
2022-08-17T16:03:44.433Z,28.53
2022-08-17T16:05:50.676Z,28.56
2022-08-17T16:08:52.570Z,28.48
2022-08-17T16:11:55.607Z,28.27
2022-08-17T16:14:57.870Z,27.92
2022-08-17T16:17:59.892Z,27.75
2022-08-17T16:21:23.809Z,27.38
2022-08-17T16:24:26.068Z,27.28
2022-08-17T16:27:27.816Z,27.22
2022-08-17T16:30:30.276Z,27.00
2022-08-17T16:33:32.664Z,26.78
2022-08-17T16:36:35.285Z,26.65
2022-08-17T16:39:39.052Z,26.49
2022-08-17T16:42:43.032Z,26.32
2022-08-17T16:45:47.522Z,26.26
2022-08-17T16:48:53.525Z,26.20
2022-08-17T16:52:03.128Z,26.05
2022-08-17T16:55:09.060Z,26.09
2022-08-17T16:58:12.113Z,25.99
2022-08-17T17:01:14.915Z,26.04
2022-08-17T17:04:18.974Z,25.83
2022-08-17T17:07:38.365Z,25.62
2022-08-17T17:10:47.535Z,25.53
2022-08-17T17:13:58.479Z,25.64
2022-08-17T17:17:25.121Z,25.59
2022-08-17T17:20:37.431Z,25.40
2022-08-17T17:23:43.776Z,25.43
2022-08-17T17:27:07.165Z,25.18
2022-08-17T17:30:17.891Z,25.06
2022-08-17T17:33:25.473Z,25.15
2022-08-17T17:36:41.590Z,25.08
2022-08-17T17:39:53.003Z,25.16
2022-08-17T17:43:14.321Z,25.01
2022-08-17T17:46:29.164Z,24.85
2022-08-17T17:49:41.478Z,24.82
2022-08-17T17:52:58.887Z,24.91
2022-08-17T17:56:21.225Z,24.71
2022-08-17T18:00:04.935Z,24.83
2022-08-17T18:03:30.519Z,24.58
2022-08-17T18:06:54.108Z,24.49
2022-08-17T18:10:19.710Z,24.29
2022-08-17T18:13:50.217Z,24.06
2022-08-17T18:16:58.876Z,23.87
2022-08-17T18:20:00.598Z,23.79
2022-08-17T18:23:04.273Z,23.74
2022-08-17T18:26:06.264Z,23.68
2022-08-17T18:29:40.034Z,23.64
2022-08-17T18:32:46.519Z,23.56
2022-08-17T18:35:58.468Z,23.48
2022-08-17T18:39:26.714Z,23.43
2022-08-17T18:42:29.966Z,23.36
2022-08-17T18:45:43.570Z,23.34
2022-08-17T18:48:58.954Z,23.18
2022-08-17T18:52:27.902Z,23.01
2022-08-17T18:55:31.876Z,22.85
2022-08-17T18:58:34.583Z,23.04
2022-08-17T19:01:53.542Z,23.07
2022-08-17T19:05:13.433Z,23.39
2022-08-17T19:08:21.451Z,23.53
2022-08-17T19:11:30.478Z,23.50
2022-08-17T19:14:32.853Z,23.51
2022-08-17T19:17:57.582Z,23.68
2022-08-17T19:21:06.977Z,23.68
2022-08-17T19:24:19.873Z,23.44
2022-08-17T19:27:32.141Z,23.32
2022-08-17T19:30:37.141Z,23.25
2022-08-17T19:33:43.835Z,23.24
2022-08-17T19:37:01.963Z,23.28
2022-08-17T19:40:35.081Z,23.16
2022-08-17T19:43:55.585Z,23.02
2022-08-17T19:47:30.726Z,22.96
2022-08-17T19:50:47.376Z,22.84
2022-08-17T19:54:06.334Z,22.82
2022-08-17T19:57:15.568Z,22.99
2022-08-17T20:00:18.743Z,22.87
2022-08-17T20:03:51.957Z,23.01
2022-08-17T20:06:56.414Z,23.00
2022-08-17T20:10:08.342Z,23.12
2022-08-17T20:13:15.317Z,23.07
2022-08-17T20:16:19.949Z,23.13
2022-08-17T20:19:37.647Z,23.17
2022-08-17T20:22:52.873Z,23.17
2022-08-17T20:26:19.798Z,23.04
2022-08-17T20:29:37.306Z,23.06
2022-08-17T20:32:48.147Z,22.96
2022-08-17T20:36:11.252Z,22.91
2022-08-17T20:39:46.573Z,22.75
2022-08-17T20:42:48.512Z,22.54
2022-08-17T20:46:03.015Z,22.50
2022-08-17T20:49:10.682Z,22.64
2022-08-17T20:52:45.687Z,22.49
2022-08-17T20:55:52.425Z,22.37
2022-08-17T20:58:55.632Z,22.21
2022-08-17T21:02:17.647Z,22.26
2022-08-17T21:05:59.797Z,22.24
2022-08-17T21:09:16.156Z,22.10
2022-08-17T21:12:41.927Z,22.02
2022-08-17T21:16:00.536Z,21.96
2022-08-17T21:19:44.401Z,21.83
2022-08-17T21:23:07.963Z,21.59
2022-08-17T21:26:38.957Z,21.47
2022-08-17T21:30:01.904Z,21.27
2022-08-17T21:33:20.190Z,21.08
2022-08-17T21:36:24.431Z,20.98
2022-08-17T21:39:40.428Z,20.68
2022-08-17T21:42:48.731Z,20.56
2022-08-17T21:46:01.103Z,20.28
2022-08-17T21:49:12.255Z,20.13
2022-08-17T21:52:19.850Z,19.99
2022-08-17T21:55:24.410Z,19.82
2022-08-17T21:58:33.286Z,19.69
2022-08-17T22:01:39.384Z,19.61
2022-08-17T22:04:42.674Z,19.52
2022-08-17T22:07:51.225Z,19.30
2022-08-17T22:11:01.454Z,19.21
2022-08-17T22:14:05.762Z,19.09
2022-08-17T22:17:16.850Z,18.99
2022-08-17T22:20:20.203Z,18.81
2022-08-17T22:23:47.728Z,18.56
2022-08-17T22:27:13.837Z,18.48
2022-08-17T22:30:30.670Z,18.38
2022-08-17T22:33:43.418Z,18.24
2022-08-17T22:36:45.042Z,18.32
2022-08-17T22:39:58.067Z,18.00
2022-08-17T22:43:03.482Z,17.89
2022-08-17T22:46:08.827Z,17.85
2022-08-17T22:49:11.048Z,17.82
2022-08-17T22:52:15.714Z,17.76
2022-08-17T22:55:37.137Z,17.69
2022-08-17T22:59:12.623Z,17.75
2022-08-17T23:02:30.664Z,17.77
2022-08-17T23:05:34.058Z,17.60
2022-08-17T23:08:50.192Z,17.46
2022-08-17T23:11:58.802Z,17.42
2022-08-17T23:15:01.947Z,17.56
2022-08-17T23:18:04.953Z,17.60
2022-08-17T23:21:07.721Z,17.54
2022-08-17T23:24:10.110Z,17.49
2022-08-17T23:27:12.261Z,17.54
2022-08-17T23:30:13.987Z,17.46
2022-08-17T23:33:30.008Z,17.59
2022-08-17T23:36:32.493Z,17.51
2022-08-17T23:39:34.914Z,17.43
2022-08-17T23:42:42.011Z,17.43
2022-08-17T23:45:48.942Z,17.35
2022-08-17T23:48:53.528Z,17.36
2022-08-17T23:51:55.335Z,17.37
2022-08-17T23:54:57.612Z,17.40
2022-08-17T23:57:59.390Z,17.34
